^^
Datos históricos de la estación: Murcia-Puente Tocinos
Diario Informe para Enero 22, 2022 Unidades:  Ingés    Métrico   Ambas
Diario Semanal Mensual Anual
  Máxima: Mínima: Promedio:
Temperatura: 50.4 °F 45.9 °F 48.4 °F
Punto de rocio: 48.7 °F 43.2 °F 46.2 °F
Humedad: 96% 84% 92%
Velocidad viento: 6.9mph 0mph 2.4mph
Racha viento: 13.8mph - -
Viento- - SSE
Presión: 30.4 in 30.3 in -
Precipitación: 0.3 in    
 
 
Tabla de datos para Enero 22, 2022
Hora Temperatura Punto de rocio Presión Viento Velocidad viento Racha viento Humedad Intensidad lluvia(por hora) Nubes
00:04 48.7 °F 44.1 °F 30.3 in SE 2.4 mph 4.6 mph 84% 0 in
00:09 48.6 °F 43.9 °F 30.3 in SSE 2.5 mph 4.7 mph 84% 0 in
00:14 48.6 °F 43.9 °F 30.3 in SSE 2.9 mph 5.8 mph 84% 0 in
00:19 48.4 °F 43.7 °F 30.3 in SSE 3 mph 5.2 mph 84% 0 in
00:24 48 °F 43.5 °F 30.3 in SSE 3.6 mph 4.6 mph 84% 0 in
00:29 48 °F 43.3 °F 30.3 in SSE 3.5 mph 4.7 mph 84% 0 in
00:34 47.8 °F 43.3 °F 30.3 in SSE 3.1 mph 4.6 mph 84% 0 in
00:39 47.8 °F 43.2 °F 30.3 in Sur 3 mph 4.6 mph 84% 0 in
00:44 47.8 °F 43.2 °F 30.3 in SSE 2.4 mph 4.7 mph 84% 0 in
00:49 47.8 °F 43.2 °F 30.3 in SSE 2.5 mph 5.4 mph 84% 0 in
00:54 47.7 °F 43.2 °F 30.3 in SSE 2.9 mph 5.8 mph 84% 0 in
00:59 47.7 °F 43.2 °F 30.3 in Sur 2.9 mph 4.6 mph 84% 0 in
01:04 47.7 °F 43.2 °F 30.3 in SSE 3.1 mph 5.8 mph 84% 0 in
01:09 47.7 °F 43.2 °F 30.3 in Sur 3.2 mph 6.9 mph 84% 0 in
01:14 47.7 °F 43.2 °F 30.3 in Sur 4 mph 6.9 mph 84% 0 in
01:19 47.7 °F 43.2 °F 30.3 in Sur 4 mph 6.9 mph 84.3% 0 in
01:24 47.8 °F 43.5 °F 30.3 in Sur 4.3 mph 5.8 mph 85% 0 in
01:29 47.8 °F 43.5 °F 30.3 in Sur 4.1 mph 4.6 mph 85% 0 in
01:34 48 °F 43.7 °F 30.3 in SSO 2.9 mph 4.6 mph 85% 0.01 in
01:39 48 °F 43.9 °F 30.3 in SSO 2.8 mph 4 mph 85.6% 0.03 in
01:44 48.2 °F 44.2 °F 30.3 in Sur 2.4 mph 4.6 mph 86% 0.04 in
01:49 48 °F 44.2 °F 30.3 in SSO 2.4 mph 4.6 mph 86.6% 0.04 in
01:54 48 °F 44.4 °F 30.3 in SSO 2.4 mph 3.5 mph 87% 0.04 in
01:59 48 °F 44.4 °F 30.3 in SSO 2.3 mph 3.5 mph 87.5% 0.04 in
02:04 48 °F 44.6 °F 30.3 in SSO 2 mph 3.5 mph 88% 0.04 in
02:09 48 °F 44.6 °F 30.3 in SSO 2 mph 2.9 mph 88.2% 0.05 in
02:14 48 °F 45 °F 30.3 in SO 1.8 mph 3.5 mph 89% 0.05 in
02:19 48 °F 45 °F 30.3 in ONO 1.8 mph 3.5 mph 89% 0.05 in
02:24 47.8 °F 44.8 °F 30.3 in NO 2 mph 3.6 mph 89% 0.05 in
02:29 47.7 °F 44.6 °F 30.3 in NO 2.1 mph 3.5 mph 89% 0.05 in
02:34 47.7 °F 44.6 °F 30.3 in NO 2.4 mph 4.7 mph 89% 0.05 in
02:39 47.3 °F 44.4 °F 30.3 in NNO 2.5 mph 5.2 mph 89.3% 0.04 in
02:44 47.1 °F 44.2 °F 30.3 in NO 2.9 mph 4.7 mph 90% 0.02 in
02:49 46.9 °F 44.2 °F 30.3 in NO 2.7 mph 4.6 mph 90% 0.02 in
02:54 46.9 °F 44.2 °F 30.3 in NO 2 mph 3.5 mph 90.7% 0.02 in
02:59 46.9 °F 44.4 °F 30.3 in NO 2 mph 3.6 mph 91% 0.02 in
03:04 46.9 °F 44.4 °F 30.3 in NO 1.8 mph 2.9 mph 91% 0.02 in
03:09 46.9 °F 44.6 °F 30.3 in NO 1.7 mph   91.6% 0.02 in
03:14 46.9 °F 44.8 °F 30.3 in NO 1.4 mph   92% 0.01 in
03:19 46.9 °F 44.8 °F 30.3 in NO 1.4 mph 3.6 mph 92% 0.01 in
03:24 47.1 °F 44.8 °F 30.3 in NO 1.4 mph 2.9 mph 92% 0.01 in
03:29 47.1 °F 44.8 °F 30.3 in NO 1.5 mph 2.9 mph 92% 0.01 in
03:34 46.9 °F 44.8 °F 30.3 in NO 1.8 mph 3.5 mph 92% 0.01 in
03:39 47.1 °F 45 °F 30.3 in NO 1.8 mph 3.5 mph 92% 0.01 in
03:44 47.1 °F 45 °F 30.3 in NO 2 mph 2.9 mph 92% 0.01 in
03:49 47.1 °F 45 °F 30.3 in NO 2 mph 2.9 mph 92.1% 0.01 in
03:54 47.1 °F 45.1 °F 30.3 in NO 1.8 mph 2.9 mph 92.8% 0 in
03:59 47.1 °F 45.1 °F 30.3 in NO 1.8 mph 2.9 mph 93% 0 in
04:04 47.1 °F 45.1 °F 30.3 in NO 1.8 mph 2.9 mph 92.6% 0 in
04:09 47.1 °F 45 °F 30.3 in NO 1.8 mph 3.1 mph 92.3% 0 in
04:14 47.1 °F 45.1 °F 30.3 in NO 1.8 mph 3.6 mph 93% 0 in
04:19 46.9 °F 45.1 °F 30.3 in NO 1.8 mph 2.9 mph 93% 0 in
04:24 46.9 °F 45 °F 30.3 in NO 2 mph 2.9 mph 93% 0 in
04:29 46.9 °F 45 °F 30.3 in NO 1.9 mph 3.1 mph 93% 0 in
04:34 46.8 °F 44.8 °F 30.3 in NO 1.4 mph 3.5 mph 93% 0 in
04:39 46.8 °F 44.8 °F 30.3 in NO 1.4 mph 2.4 mph 93% 0 in
04:44 46.8 °F 44.8 °F 30.3 in NO 1.8 mph 3.6 mph 93% 0 in
04:49 46.8 °F 44.8 °F 30.3 in NO 1.8 mph 3.6 mph 93% 0 in
04:54 46.6 °F 44.8 °F 30.3 in SSO 1.8 mph 3.5 mph 93% 0 in
04:59 46.4 °F 44.6 °F 30.3 in Sur 1.9 mph 4.6 mph 93% 0 in
05:04 46.2 °F 44.4 °F 30.3 in Sur 2 mph 2.3 mph 93% 0 in
05:09 46.2 °F 44.2 °F 30.3 in Sur 2 mph 4.6 mph 93% 0 in
05:14 46.2 °F 44.2 °F 30.3 in Sur 1.8 mph 4.6 mph 93% 0 in
05:19 46 °F 44.2 °F 30.3 in Sur 2 mph 5.8 mph 93% 0 in
05:24 46 °F 44.1 °F 30.3 in SSO 3.1 mph 5.2 mph 93% 0 in
05:29 46 °F 44.2 °F 30.3 in Sur 3.2 mph 4.7 mph 93.8% 0 in
05:34 46 °F 44.4 °F 30.3 in SSO 3.6 mph 5.2 mph 94% 0 in
05:39 46 °F 44.4 °F 30.3 in Sur 3.6 mph 5.2 mph 94% 0 in
05:44 46 °F 44.2 °F 30.3 in SSE 3.6 mph 5.9 mph 94% 0 in
05:49 45.9 °F 44.2 °F 30.3 in SSE 3.7 mph 5.9 mph 94% 0 in
05:54 45.9 °F 44.2 °F 30.3 in Sur 4 mph 5.8 mph 94% 0 in
05:59 45.9 °F 44.2 °F 30.3 in SSE 3.9 mph 5.8 mph 94% 0 in
06:04 45.9 °F 44.2 °F 30.3 in SSE 3.6 mph 5.9 mph 94% 0 in
06:09 45.9 °F 44.2 °F 30.3 in Sur 3.6 mph 5.2 mph 94% 0 in
06:14 45.9 °F 44.2 °F 30.3 in Sur 3.6 mph 5.8 mph 94% 0 in
06:19 45.9 °F 44.2 °F 30.3 in Sur 3.5 mph 4.6 mph 94% 0 in
06:24 45.9 °F 44.2 °F 30.3 in SSE 2.9 mph 4.6 mph 94% 0 in
06:29 46 °F 44.4 °F 30.3 in SSE 2.9 mph 3.6 mph 94% 0 in
06:34 46 °F 44.4 °F 30.3 in SSE 2.4 mph 5.2 mph 94% 0 in
06:39 46 °F 44.4 °F 30.4 in SSE 2.5 mph 5.9 mph 94% 0 in
06:44 46 °F 44.2 °F 30.4 in Sur 3.1 mph 5.8 mph 93.4% 0 in
06:49 46.2 °F 44.2 °F 30.4 in SSE 3.2 mph 5.9 mph 93% 0 in
06:54 46.2 °F 44.2 °F 30.4 in Sur 3.6 mph 4.6 mph 93% 0 in
06:59 46.2 °F 44.2 °F 30.4 in Sur 3.5 mph 4.6 mph 93% 0 in
07:04 46.2 °F 44.2 °F 30.4 in Sur 2.9 mph 4.7 mph 93% 0 in
07:09 46.2 °F 44.4 °F 30.4 in Sur 2.9 mph 4.6 mph 93% 0 in
07:14 46.4 °F 44.4 °F 30.4 in Sur 2.9 mph 3.5 mph 93% 0 in
07:19 46.4 °F 44.4 °F 30.4 in Sur 2.7 mph 2.3 mph 93% 0 in
07:24 46.6 °F 44.6 °F 30.4 in Sur 1.8 mph 2.9 mph 93% 0 in
07:29 46.6 °F 44.6 °F 30.4 in Sur 1.6 mph   92.7% 0 in
07:34 46.6 °F 44.6 °F 30.4 in Calm   1.4 mph 92.9% 0 in
07:39 46.6 °F 44.8 °F 30.4 in Calm   1.2 mph 93% 0 in
07:44 46.8 °F 44.6 °F 30.4 in Calm   2.9 mph 92.1% 0 in
07:49 46.8 °F 44.6 °F 30.4 in Calm   2.4 mph 92% 0 in
07:54 46.8 °F 44.6 °F 30.4 in Calm   2.9 mph 92% 0 in
07:59 46.6 °F 44.4 °F 30.4 in Calm   1.2 mph 92% 0 in
08:04 46.6 °F 44.4 °F 30.4 in Calm     92% 0 in
08:09 46.6 °F 44.2 °F 30.4 in Calm   2.4 mph 92% 0 in
08:14 46.4 °F 44.2 °F 30.4 in Calm   2.9 mph 92% 0 in
08:19 46.2 °F 44.1 °F 30.4 in Sur 0.2 mph 2.9 mph 92% 0 in
08:24 46.2 °F 44.1 °F 30.4 in Sur 1.4 mph 2.4 mph 92% 0 in
08:29 46.2 °F 44.1 °F 30.4 in Sur 1.2 mph 2.4 mph 92% 0 in
08:34 46.2 °F 44.1 °F 30.4 in Calm   3.5 mph 92.4% 0 in
08:39 46.2 °F 44.2 °F 30.4 in Sur 0.2 mph 2.4 mph 93% 0 in
08:44 46.2 °F 44.2 °F 30.4 in Sur 1.4 mph 2.9 mph 93% 0 in
08:49 46.2 °F 44.2 °F 30.4 in Sur 1.4 mph 2.4 mph 93% 0 in
08:54 46.2 °F 44.2 °F 30.4 in Sur 1.4 mph 3.6 mph 93% 0 in
08:59 46.2 °F 44.2 °F 30.4 in Sur 1.4 mph 2.9 mph 93% 0 in
09:04 46.2 °F 44.2 °F 30.4 in Sur 1.4 mph 2.4 mph 93% 0 in
09:09 46.2 °F 44.4 °F 30.4 in Sur 1.2 mph   93% 0.01 in
09:14 46.4 °F 44.6 °F 30.4 in Calm   2.9 mph 93% 0.01 in
09:19 46.6 °F 44.8 °F 30.4 in Sur 0.2 mph 3.6 mph 93% 0.01 in
09:24 46.6 °F 44.8 °F 30.4 in Sur 1.8 mph 3.5 mph 93% 0.01 in
09:29 46.6 °F 44.8 °F 30.4 in SO 1.7 mph 2.4 mph 93% 0.01 in
09:34 46.8 °F 44.8 °F 30.4 in NO 1.4 mph 2.9 mph 93% 0.01 in
09:39 46.8 °F 44.8 °F 30.4 in North 1.4 mph 3.1 mph 93% 0.01 in
09:44 46.9 °F 45 °F 30.4 in NNE 1.4 mph 3.5 mph 93% 0.01 in
09:49 46.9 °F 45 °F 30.4 in NE 1.4 mph 2.4 mph 93% 0.01 in
09:54 47.1 °F 45.3 °F 30.4 in NE 1.4 mph 2.3 mph 93.5% 0.01 in
09:59 47.1 °F 45.3 °F 30.4 in NE 1.4 mph 3.6 mph 93.6% 0.01 in
10:04 47.1 °F 45.1 °F 30.4 in NE 1.4 mph 3.5 mph 93% 0.01 in
10:09 47.3 °F 45.5 °F 30.4 in NE 1.4 mph 2.9 mph 93.5% 0.01 in
10:14 47.5 °F 45.9 °F 30.4 in NE 1.8 mph 2.4 mph 94% 0 in
10:19 47.7 °F 45.9 °F 30.4 in NE 1.8 mph 4.6 mph 94% 0 in
10:24 47.7 °F 45.9 °F 30.4 in NE 2 mph 3.6 mph 93.7% 0 in
10:29 47.7 °F 46 °F 30.4 in NE 2 mph 3.5 mph 93.9% 0 in
10:34 47.8 °F 46 °F 30.4 in NE 2 mph 3.5 mph 93.6% 0 in
10:39 47.8 °F 45.9 °F 30.4 in NE 2 mph 3.5 mph 93% 0 in
10:44 47.8 °F 45.9 °F 30.4 in NE 1.8 mph 3.6 mph 93% 0 in
10:49 47.8 °F 45.9 °F 30.4 in NE 1.8 mph 3.6 mph 93% 0 in
10:54 47.8 °F 45.9 °F 30.4 in NE 2 mph 2.4 mph 93% 0 in
10:59 47.8 °F 45.9 °F 30.4 in NNO 2 mph 3.6 mph 93% 0 in
11:04 47.8 °F 45.7 °F 30.4 in ONO 1.8 mph 4.6 mph 92.5% 0 in
11:09 47.8 °F 45.7 °F 30.4 in NO 1.8 mph 3.5 mph 92.3% 0.02 in
11:14 47.8 °F 45.7 °F 30.4 in NO 2 mph 4.6 mph 92% 0.02 in
11:19 47.8 °F 45.7 °F 30.4 in ONO 2.1 mph 4.6 mph 92% 0.02 in
11:24 47.8 °F 45.7 °F 30.4 in Oeste 2.4 mph 2.9 mph 92% 0.02 in
11:29 48 °F 45.9 °F 30.4 in Oeste 2.2 mph 3.5 mph 92% 0.02 in
11:34 48 °F 45.9 °F 30.4 in Oeste 1.4 mph 2.9 mph 92% 0.02 in
11:39 48 °F 45.9 °F 30.4 in Oeste 1.4 mph 2.9 mph 92% 0.02 in
11:44 48.2 °F 45.9 °F 30.4 in Oeste 1.4 mph 3.6 mph 92% 0.02 in
11:49 48.4 °F 46.2 °F 30.4 in OSO 1.4 mph 3.5 mph 92% 0.02 in
11:54 48.6 °F 46.2 °F 30.4 in SSO 1.4 mph 3.6 mph 92% 0.02 in
11:59 48.6 °F 46.2 °F 30.4 in SO 1.6 mph 4.6 mph 91.4% 0.02 in
12:04 48.6 °F 46 °F 30.4 in SO 2.4 mph 4.6 mph 91% 0.02 in
12:09 48.9 °F 46.6 °F 30.4 in Sur 2.5 mph 5.8 mph 91.6% 0 in
12:14 49.3 °F 46.8 °F 30.4 in SSO 2.9 mph 5.9 mph 91% 0 in
12:19 49.5 °F 46.9 °F 30.4 in SSO 2.9 mph 6.2 mph 91% 0 in
12:24 49.5 °F 46.9 °F 30.4 in SSO 3.1 mph 7.4 mph 91% 0 in
12:29 49.5 °F 46.6 °F 30.4 in SSO 3.4 mph 6.9 mph 90.1% 0 in
12:34 49.5 °F 46.8 °F 30.4 in SO 4.7 mph 5.2 mph 90.5% 0 in
12:39 49.5 °F 46.6 °F 30.4 in SSO 4.5 mph 6.9 mph 90% 0 in
12:44 49.5 °F 46.6 °F 30.4 in SSO 3.6 mph 7.4 mph 90% 0 in
12:49 49.6 °F 46.6 °F 30.4 in SSO 3.8 mph 5.9 mph 89.6% 0 in
12:54 49.6 °F 46.8 °F 30.4 in SSO 4.7 mph 5.9 mph 89.6% 0 in
12:59 49.8 °F 46.8 °F 30.4 in SSO 4.5 mph 6.9 mph 89% 0 in
13:04 49.8 °F 46.4 °F 30.4 in Sur 4 mph 7.4 mph 88% 0 in
13:09 49.8 °F 46.4 °F 30.4 in Sur 4 mph 5.8 mph 88% 0 in
13:14 49.8 °F 46.4 °F 30.4 in SE 4.3 mph 4.7 mph 88% 0 in
13:19 50 °F 46.6 °F 30.4 in Sur 4 mph 4.7 mph 88% 0 in
13:24 50 °F 46.8 °F 30.4 in SSO 2.4 mph 5.8 mph 88% 0 in
13:29 49.8 °F 46.4 °F 30.4 in SSO 2.5 mph 4.6 mph 88% 0 in
13:34 49.8 °F 46.8 °F 30.4 in SSE 3.1 mph 3.5 mph 88.9% 0 in
13:39 50 °F 46.9 °F 30.4 in SSE 2.9 mph 4.6 mph 89% 0 in
13:44 49.8 °F 46.8 °F 30.4 in SSO 2 mph 4.6 mph 89% 0 in
13:49 50 °F 46.9 °F 30.4 in SSO 2 mph 3.6 mph 89% 0 in
13:54 50 °F 46.9 °F 30.4 in SSO 2 mph 3.6 mph 89.1% 0 in
13:59 50.2 °F 47.5 °F 30.4 in SSO 2 mph 3.6 mph 90% 0 in
14:04 50.4 °F 47.5 °F 30.4 in Sur 1.8 mph 4.7 mph 90% 0 in
14:09 50.2 °F 47.3 °F 30.4 in Sur 1.9 mph 5.2 mph 89.5% 0 in
14:14 50.2 °F 47.5 °F 30.4 in SSE 2.9 mph 4.6 mph 90% 0 in
14:19 50 °F 47.3 °F 30.4 in SE 2.9 mph 5.2 mph 90% 0 in
14:24 49.8 °F 46.9 °F 30.4 in Sur 2.9 mph 5.9 mph 89.7% 0 in
14:29 49.6 °F 46.8 °F 30.4 in SE 3 mph 5.9 mph 90% 0 in
14:34 49.6 °F 46.8 °F 30.4 in SE 4 mph 4.6 mph 90% 0 in
14:39 49.6 °F 47.1 °F 30.4 in SSE 3.7 mph 2.4 mph 90.9% 0 in
14:44 49.8 °F 47.3 °F 30.4 in SSE 1.8 mph 2.9 mph 91% 0 in
14:49 49.8 °F 47.3 °F 30.4 in SSE 1.6 mph 1.4 mph 91% 0 in
14:54 50 °F 47.5 °F 30.4 in Calm   1.4 mph 91% 0 in
14:59 50.2 °F 47.7 °F 30.4 in Calm   2.9 mph 91% 0 in
15:04 50.2 °F 47.7 °F 30.4 in Calm   3.6 mph 91% 0 in
15:09 50.2 °F 47.7 °F 30.4 in ONO 0.3 mph 4.7 mph 91% 0 in
15:14 50 °F 47.5 °F 30.4 in ONO 2 mph 4.7 mph 91% 0 in
15:19 49.8 °F 47.3 °F 30.4 in NO 2.1 mph 4.7 mph 91% 0 in
15:24 49.8 °F 47.3 °F 30.4 in NNO 2.9 mph 4.7 mph 91% 0 in
15:29 49.8 °F 47.3 °F 30.4 in NNO 2.8 mph 4.7 mph 91% 0 in
15:34 49.8 °F 47.3 °F 30.4 in NNE 2 mph 5.2 mph 91% 0 in
15:39 50 °F 47.5 °F 30.4 in NNE 2 mph 3.6 mph 91% 0 in
15:44 50 °F 47.5 °F 30.4 in NNO 2 mph 5.8 mph 91% 0 in
15:49 50 °F 47.5 °F 30.4 in NNO 2.1 mph 4.6 mph 91% 0 in
15:54 50 °F 47.5 °F 30.4 in NNO 2.9 mph 3.6 mph 91% 0 in
15:59 50 °F 47.5 °F 30.4 in NNE 2.7 mph 4.6 mph 91% 0 in
16:04 50 °F 47.5 °F 30.4 in NNE 1.8 mph 3.6 mph 91% 0 in
16:09 49.8 °F 47.5 °F 30.4 in NNE 1.8 mph 3.5 mph 91% 0 in
16:14 50 °F 47.5 °F 30.4 in NNE 1.8 mph 2.9 mph 91% 0 in
16:19 50 °F 47.5 °F 30.4 in NNE 1.7 mph 2.4 mph 91% 0 in
16:24 50 °F 47.5 °F 30.4 in NNE 1.4 mph 3.5 mph 91% 0 in
16:29 50 °F 47.5 °F 30.4 in NNE 1.4 mph 2.4 mph 91% 0 in
16:34 50.2 °F 47.7 °F 30.4 in NNE 1.4 mph 1.2 mph 91% 0 in
16:39 50.2 °F 47.7 °F 30.4 in NNE 1.2 mph   91% 0 in
16:44 50.2 °F 47.7 °F 30.4 in Calm   1.4 mph 91% 0 in
16:49 50.2 °F 47.7 °F 30.4 in Calm   3.5 mph 91% 0 in
16:54 50.2 °F 47.7 °F 30.4 in Calm   2.9 mph 91% 0.01 in
16:59 50.2 °F 47.7 °F 30.4 in NNE 0.2 mph 2.3 mph 91% 0.01 in
17:04 50.2 °F 47.7 °F 30.4 in NNE 1.4 mph 2.4 mph 91% 0.01 in
17:09 50.2 °F 47.7 °F 30.4 in NNE 1.4 mph 2.3 mph 91% 0.02 in
17:14 50.2 °F 47.8 °F 30.4 in NNE 1.4 mph 3.1 mph 91.9% 0.02 in
17:19 50.2 °F 47.8 °F 30.4 in NNE 1.4 mph 3.5 mph 92% 0.02 in
17:24 50 °F 47.8 °F 30.4 in NNE 1.8 mph 4 mph 92% 0.02 in
17:29 50 °F 47.8 °F 30.4 in SSO 1.8 mph 4.6 mph 92% 0.02 in
17:34 49.8 °F 47.7 °F 30.4 in SSO 2 mph 2.4 mph 92% 0.02 in
17:39 49.8 °F 47.7 °F 30.4 in SSE 2 mph 5.4 mph 92.3% 0.02 in
17:44 50 °F 48 °F 30.4 in SE 2 mph 6.9 mph 93% 0.02 in
17:49 49.8 °F 47.8 °F 30.4 in SE 2.1 mph 3.5 mph 93% 0.02 in
17:54 49.8 °F 47.8 °F 30.4 in SE 2.9 mph 3.5 mph 93% 0.02 in
17:59 49.6 °F 47.8 °F 30.4 in SE 2.7 mph 2.4 mph 93% 0.01 in
18:04 49.6 °F 47.7 °F 30.4 in SE 1.8 mph 2.4 mph 93% 0.01 in
18:09 49.6 °F 47.8 °F 30.4 in SE 1.7 mph 2.3 mph 93.7% 0.01 in
18:14 49.6 °F 48 °F 30.4 in SE 1.4 mph 2.3 mph 94% 0 in
18:19 49.6 °F 48 °F 30.4 in SE 1.4 mph 3.5 mph 94% 0 in
18:24 49.6 °F 48 °F 30.4 in SE 1.4 mph 3.5 mph 94% 0 in
18:29 49.8 °F 48.2 °F 30.3 in SE 1.5 mph 3.6 mph 94% 0 in
18:34 49.8 °F 48.2 °F 30.3 in SE 2 mph 4.6 mph 94% 0 in
18:39 49.8 °F 48.2 °F 30.3 in SE 2.1 mph 4.6 mph 94% 0 in
18:44 49.6 °F 48 °F 30.3 in SE 2.4 mph 4.6 mph 94% 0 in
18:49 49.8 °F 48.2 °F 30.3 in SSE 2.4 mph 4.6 mph 94% 0.01 in
18:54 49.8 °F 48.2 °F 30.3 in SSE 2.4 mph 4.7 mph 94% 0.01 in
18:59 49.6 °F 48 °F 30.3 in SSE 2.5 mph 5.2 mph 94% 0.01 in
19:04 49.6 °F 48 °F 30.3 in SSE 2.9 mph 4.7 mph 94% 0.01 in
19:09 49.6 °F 48 °F 30.4 in SSE 2.9 mph 4.7 mph 94.1% 0.01 in
19:14 49.6 °F 48.4 °F 30.4 in SSE 2.9 mph 3.5 mph 95% 0.01 in
19:19 49.6 °F 48.4 °F 30.4 in SSE 2.4 mph 1.4 mph 95% 0.01 in
19:24 49.6 °F 48.4 °F 30.4 in Calm   3.6 mph 95% 0.01 in
19:29 49.6 °F 48.4 °F 30.4 in SE 0.2 mph 4.6 mph 95% 0.02 in
19:34 49.6 °F 48.4 °F 30.4 in SE 2.4 mph 4.6 mph 95% 0.02 in
19:39 49.6 °F 48.4 °F 30.4 in SE 2.4 mph 2.4 mph 95% 0.02 in
19:44 49.6 °F 48.4 °F 30.4 in SE 2 mph 5.2 mph 95% 0.02 in
19:49 49.6 °F 48.4 °F 30.4 in SE 2.2 mph 6.2 mph 95% 0.01 in
19:54 49.6 °F 48.2 °F 30.4 in SSE 3.1 mph 5.9 mph 95% 0.01 in
19:59 49.5 °F 48 °F 30.4 in Sur 3.1 mph 4.7 mph 95% 0.01 in
20:04 49.5 °F 48 °F 30.4 in SSE 3.1 mph 4.6 mph 95% 0.01 in
20:09 49.5 °F 48 °F 30.4 in SSE 3 mph 3.5 mph 95% 0.01 in
20:14 49.5 °F 48 °F 30.4 in SSE 2.4 mph 4.6 mph 95% 0.01 in
20:19 49.5 °F 48.2 °F 30.4 in SSE 2.5 mph 4.6 mph 95.1% 0.02 in
20:24 49.5 °F 48.4 °F 30.4 in SE 2.9 mph 4.6 mph 96% 0.03 in
20:29 49.5 °F 48.4 °F 30.4 in SE 2.8 mph 3.6 mph 96% 0.03 in
20:34 49.5 °F 48.4 °F 30.4 in SE 2.4 mph 4.6 mph 96% 0.04 in
20:39 49.6 °F 48.4 °F 30.4 in SE 2.4 mph 3.5 mph 96% 0.04 in
20:44 49.6 °F 48.6 °F 30.4 in SE 2.4 mph 3.6 mph 96% 0.05 in
20:49 49.6 °F 48.6 °F 30.4 in Sur 2.3 mph 3.6 mph 96% 0.07 in
20:54 49.5 °F 48.4 °F 30.4 in Sur 1.8 mph 2 mph 96% 0.07 in
20:59 49.6 °F 48.6 °F 30.4 in SSE 1.8 mph 4.6 mph 96% 0.07 in
21:04 49.6 °F 48.6 °F 30.4 in SSE 1.8 mph 4.6 mph 96% 0.07 in
21:09 49.6 °F 48.6 °F 30.4 in ESE 1.9 mph 5.4 mph 96% 0.07 in
21:14 49.6 °F 48.6 °F 30.4 in NE 2.9 mph 5.9 mph 96% 0.08 in
21:19 49.6 °F 48.6 °F 30.4 in NE 3 mph 5.8 mph 96% 0.08 in
21:24 49.6 °F 48.6 °F 30.4 in NE 3.6 mph 5.8 mph 96% 0.07 in
21:29 49.8 °F 48.6 °F 30.4 in NE 3.7 mph 12.5 mph 96% 0.05 in
21:34 49.8 °F 48.7 °F 30.4 in ENE 4 mph 12.7 mph 96% 0.06 in
21:39 49.8 °F 48.7 °F 30.4 in Este 4.3 mph 10.7 mph 96% 0.07 in
21:44 49.8 °F 48.7 °F 30.4 in ENE 6.4 mph 12.5 mph 96% 0.07 in
21:49 49.8 °F 48.7 °F 30.4 in NE 6.2 mph 12.7 mph 96% 0.07 in
21:54 49.8 °F 48.7 °F 30.4 in NE 5.2 mph 11.8 mph 96% 0.09 in
21:59 49.6 °F 48.6 °F 30.4 in NE 5.5 mph 13.8 mph 96% 0.09 in
22:04 49.6 °F 48.6 °F 30.4 in NE 6.9 mph 13.8 mph 96% 0.09 in
22:09 49.6 °F 48.6 °F 30.4 in NE 6.8 mph 8.1 mph 96% 0.1 in
22:14 49.6 °F 48.6 °F 30.4 in NNE 6.2 mph 9.2 mph 96% 0.1 in
22:19 49.6 °F 48.6 °F 30.4 in NNE 6 mph 8.5 mph 96% 0.09 in
22:24 49.6 °F 48.6 °F 30.4 in NNE 5.2 mph 8.1 mph 96% 0.09 in
22:29 49.5 °F 48.4 °F 30.4 in NNE 5.2 mph 6.9 mph 96% 0.09 in
22:34 49.5 °F 48.4 °F 30.4 in NNE 5.2 mph 6.9 mph 96% 0.08 in
22:39 49.5 °F 48.4 °F 30.4 in NNE 5.1 mph 7.4 mph 96% 0.07 in
22:44 49.5 °F 48.4 °F 30.4 in NNE 4.3 mph 6.9 mph 96% 0.06 in
22:49 49.5 °F 48.4 °F 30.4 in NNE 4.3 mph 8.1 mph 96% 0.05 in
22:54 49.3 °F 48.2 °F 30.4 in NNE 4.3 mph 8.1 mph 96% 0.02 in
22:59 49.3 °F 48.2 °F 30.4 in NNE 4.2 mph 5.8 mph 96% 0.01 in
23:04 49.3 °F 48.2 °F 30.4 in North 3.6 mph 4.7 mph 96% 0.01 in
23:09 49.1 °F 48 °F 30.4 in NNE 3.4 mph 4.6 mph 96% 0 in
23:14 49.1 °F 48 °F 30.4 in NNE 2.4 mph 3.1 mph 96% 0 in
23:19 49.1 °F 48 °F 30.4 in NNE 2.3 mph 3.5 mph 96% 0 in
23:24 49.1 °F 48 °F 30.4 in NNE 1.8 mph 3.6 mph 96% 0 in
23:29 49.1 °F 48 °F 30.4 in NE 2 mph 6.2 mph 96% 0 in
23:34 49.1 °F 48 °F 30.4 in NE 2.9 mph 6.9 mph 96% 0 in
23:39 49.1 °F 48 °F 30.4 in NE 3.1 mph 5.9 mph 96% 0 in
23:44 49.1 °F 48 °F 30.4 in NE 4 mph 5.8 mph 96% 0 in
23:49 48.9 °F 47.8 °F 30.4 in NE 3.9 mph 6.2 mph 96% 0 in
23:54 48.9 °F 47.8 °F 30.4 in NE 3.6 mph 7.4 mph 96% 0 in
23:59 48.9 °F 47.8 °F 30.4 in NE 3.7 mph 6.9 mph 96% 0 in
Murcia-Puente Tocinos, Espa?a
Compliments of Weather Underground - 3 mb

La estación de MeteoMurcia.com, publica sus datos en los siguientes proyectos:

Weather Underground PWS IMURCIAP2 Meteoclimatic www.awekas.at

W3Counter
Web Analytics